ΕΜΥ, Εθνική Μετεωρολογική Υπηρεσία - Δελτία Καιρού, Προγνώσεις

ΑΕΡΟΝΑΥΤΙΛΙΑ

GREEK AIRPORTS CODES

LGKF 090750Z 27006KT 9999 FEW018 26/19 Q1015=

EUROPEAN AIRPORTS CODES

EBBR 090820Z 25010KT 220V280 9999 SCT013 BKN033 18/16 Q1014 NOSIG=